Time;durP1;ratioP1;P1;durP2;ratioP2;P2;SDS_P1;SDS_P2;PMS_P1;PMS_P2;Temp;Humidity;BMP_temperature;BMP_pressure;BME280_temperature;BME280_humidity;BME280_pressure;Samples;Min_cycle;Max_cycle;Signal;HPM_P1;HPM_P2
2022/04/13 00:01:56;;;;;;;2.90;1.90;;;;;;;27.44;29.40;96273.94;4940599;28;20037;-31
2022/04/13 00:04:21;;;;;;;3.20;1.58;;;;;;;27.44;29.46;96281.84;4925357;28;20035;-30
2022/04/13 00:06:47;;;;;;;4.30;1.58;;;;;;;27.43;29.31;96271.41;4927550;28;20121;-31
2022/04/13 00:09:12;;;;;;;3.17;1.98;;;;;;;27.44;29.41;96281.00;4929766;28;20038;-33
2022/04/13 00:11:37;;;;;;;3.63;1.80;;;;;;;27.43;29.32;96280.16;4925321;28;20043;-30
2022/04/13 00:14:03;;;;;;;5.32;2.00;;;;;;;27.44;29.26;96275.72;4927971;28;20024;-32
2022/04/13 00:16:29;;;;;;;2.67;1.77;;;;;;;27.44;29.40;96275.72;4927195;28;20031;-31
2022/04/13 00:18:54;;;;;;;3.05;2.10;;;;;;;27.44;29.45;96273.09;4925444;28;20042;-30
2022/04/13 00:21:19;;;;;;;2.50;1.95;;;;;;;27.43;29.34;96268.78;4926781;28;20044;-31
2022/04/13 00:23:45;;;;;;;2.83;1.70;;;;;;;27.43;29.37;96280.16;4923103;28;20042;-30
2022/04/13 00:26:10;;;;;;;3.17;2.03;;;;;;;27.42;29.52;96272.38;4919585;28;21953;-33
2022/04/13 00:28:36;;;;;;;3.67;2.15;;;;;;;27.44;29.40;96275.72;4892972;28;20062;-29
2022/04/13 00:31:01;;;;;;;2.72;1.80;;;;;;;27.43;29.46;96279.31;4894641;28;20565;-33
2022/04/13 00:33:27;;;;;;;2.20;1.73;;;;;;;27.42;29.46;96278.47;4894071;28;20350;-34
2022/04/13 00:35:55;;;;;;;2.83;1.80;;;;;;;27.43;29.33;96279.31;4893516;28;20035;-34
2022/04/13 00:38:22;;;;;;;3.35;1.80;;;;;;;27.42;29.34;96282.91;4892681;28;20041;-30
2022/04/13 00:40:48;;;;;;;3.42;1.70;;;;;;;27.42;29.41;96277.63;4888129;28;20043;-30
2022/04/13 00:43:13;;;;;;;2.50;1.67;;;;;;;27.42;29.47;96283.72;4887438;28;20218;-33
2022/04/13 00:45:38;;;;;;;2.40;1.63;;;;;;;27.42;29.34;96283.72;4888258;28;20131;-30
2022/04/13 00:48:04;;;;;;;3.80;1.63;;;;;;;27.42;29.29;96283.72;4885806;28;20023;-33
2022/04/13 00:50:30;;;;;;;3.10;1.83;;;;;;;27.43;29.38;96290.69;4892165;28;20647;-34
2022/04/13 00:52:56;;;;;;;3.25;1.83;;;;;;;27.43;29.47;96285.44;4893061;28;20063;-33
2022/04/13 00:55:24;;;;;;;2.10;1.70;;;;;;;27.42;29.29;96283.72;4890278;28;20035;-32
2022/04/13 00:57:49;;;;;;;3.10;1.60;;;;;;;27.42;29.34;96282.91;4895253;28;20039;-33
2022/04/13 01:00:15;;;;;;;2.40;1.70;;;;;;;27.42;29.31;96283.72;4892193;28;20054;-31
2022/04/13 01:02:42;;;;;;;2.25;1.60;;;;;;;27.44;29.41;96291.50;4890738;28;20086;-32
2022/04/13 01:05:08;;;;;;;2.92;1.55;;;;;;;27.41;29.46;96284.69;4891336;28;20450;-30
2022/04/13 01:07:34;;;;;;;3.33;1.95;;;;;;;27.42;29.36;96288.16;4904383;28;20038;-30
2022/04/13 01:10:00;;;;;;;4.03;1.50;;;;;;;27.43;29.53;96289.84;4891078;28;20039;-29
2022/04/13 01:12:26;;;;;;;3.38;1.75;;;;;;;27.42;29.52;96290.78;4898981;28;20854;-30
2022/04/13 01:14:52;;;;;;;1.65;1.20;;;;;;;27.43;29.48;96292.47;4890080;28;20035;-33
2022/04/13 01:17:17;;;;;;;2.30;1.70;;;;;;;27.43;29.38;96295.09;4894355;28;20051;-31
2022/04/13 01:19:46;;;;;;;4.78;1.80;;;;;;;27.42;29.45;96294.25;4898346;28;20024;-35
2022/04/13 01:22:20;;;;;;;3.38;1.63;;;;;;;27.43;29.26;96300.38;4885669;28;20643;-30
2022/04/13 01:24:46;;;;;;;2.35;1.40;;;;;;;27.43;29.43;96301.22;4894149;28;20113;-30
2022/04/13 01:27:14;;;;;;;2.78;1.50;;;;;;;27.43;29.56;96301.22;4909612;28;20038;-35
2022/04/13 01:29:39;;;;;;;1.63;1.30;;;;;;;27.42;29.43;96294.25;4925762;28;20755;-31
2022/04/13 01:32:05;;;;;;;2.65;1.48;;;;;;;27.42;29.35;96298.69;4929146;28;20047;-33
2022/04/13 01:34:30;;;;;;;2.17;1.40;;;;;;;27.41;29.36;96297.00;4929994;28;20063;-33
2022/04/13 01:36:56;;;;;;;3.38;1.85;;;;;;;27.41;29.43;96294.38;4917316;28;20509;-30
2022/04/13 01:39:21;;;;;;;1.88;1.30;;;;;;;27.39;29.39;96295.28;4922829;28;20039;-30
2022/04/13 01:41:48;;;;;;;1.63;1.27;;;;;;;27.39;29.39;96300.56;4934737;28;20035;-32
2022/04/13 01:44:15;;;;;;;2.08;1.30;;;;;;;27.39;29.23;96299.75;4922188;28;20027;-30
2022/04/13 01:46:40;;;;;;;2.45;1.40;;;;;;;27.37;29.42;96305.09;4920510;28;20031;-33
2022/04/13 01:49:06;;;;;;;2.50;1.50;;;;;;;27.39;29.36;96305.00;4921960;28;20131;-33
2022/04/13 01:51:31;;;;;;;2.38;1.60;;;;;;;27.38;29.49;96309.41;4920531;28;20031;-30
2022/04/13 01:53:57;;;;;;;1.80;1.35;;;;;;;27.38;29.47;96312.03;4919821;28;20063;-30
2022/04/13 01:56:22;;;;;;;2.30;1.50;;;;;;;27.37;29.42;96315.63;4921484;28;20030;-32
2022/04/13 01:58:47;;;;;;;2.30;1.50;;;;;;;27.37;29.47;96313.00;4919855;28;20540;-31
2022/04/13 02:01:13;;;;;;;4.25;1.45;;;;;;;27.37;29.27;96318.25;4919427;28;20043;-30
2022/04/13 02:03:38;;;;;;;1.67;1.35;;;;;;;27.37;29.39;96320.03;4924888;28;20032;-31
2022/04/13 02:06:04;;;;;;;2.08;1.20;;;;;;;27.37;29.46;96318.25;4919887;28;20036;-29
2022/04/13 02:08:29;;;;;;;4.20;1.40;;;;;;;27.38;29.45;96319.94;4919493;28;20098;-30
2022/04/13 02:10:55;;;;;;;2.13;1.40;;;;;;;27.37;29.34;96320.88;4919364;28;20023;-30
2022/04/13 02:13:21;;;;;;;3.08;1.20;;;;;;;27.37;29.42;96323.50;4925620;28;20036;-29
2022/04/13 02:15:48;;;;;;;4.72;1.38;;;;;;;27.38;29.39;96324.34;4921960;28;20031;-30
2022/04/13 02:18:14;;;;;;;1.92;1.30;;;;;;;27.36;29.40;96321.84;4927689;28;20031;-28
2022/04/13 02:20:39;;;;;;;3.40;1.60;;;;;;;27.35;29.53;96320.13;4923503;28;20094;-34
2022/04/13 02:23:05;;;;;;;2.05;1.20;;;;;;;27.35;29.42;96320.13;4922244;28;20042;-31
2022/04/13 02:25:30;;;;;;;2.17;1.45;;;;;;;27.35;29.33;96325.38;4927584;28;20035;-32
2022/04/13 02:27:55;;;;;;;1.45;1.30;;;;;;;27.35;29.53;96314.88;4923349;28;20042;-31
2022/04/13 02:30:21;;;;;;;1.58;1.20;;;;;;;27.34;29.38;96326.34;4921213;28;20581;-30
2022/04/13 02:32:46;;;;;;;1.95;1.40;;;;;;;27.34;29.32;96334.25;4924790;28;20062;-33
2022/04/13 02:35:12;;;;;;;2.13;1.42;;;;;;;27.34;29.44;96328.16;4927271;28;20039;-31
2022/04/13 02:37:38;;;;;;;3.65;1.40;;;;;;;27.34;29.37;96328.16;4940809;28;20019;-33
2022/04/13 02:40:06;;;;;;;1.55;1.38;;;;;;;27.34;29.31;96334.25;4921765;28;20039;-29
2022/04/13 02:42:33;;;;;;;1.75;1.30;;;;;;;27.33;29.32;96336.97;4924714;28;20023;-33
2022/04/13 02:44:58;;;;;;;3.13;1.48;;;;;;;27.32;29.38;96346.66;4917962;28;20619;-35
2022/04/13 02:47:24;;;;;;;2.22;1.50;;;;;;;27.33;29.46;96337.81;4922742;28;20031;-30
2022/04/13 02:49:49;;;;;;;3.88;1.15;;;;;;;27.33;29.36;96337.81;4922695;28;20034;-30
2022/04/13 02:52:15;;;;;;;2.28;1.35;;;;;;;27.33;29.40;96332.56;4920670;28;20054;-31
2022/04/13 02:54:40;;;;;;;9.57;1.20;;;;;;;27.33;29.38;96344.84;4920941;28;20042;-34
2022/04/13 02:57:05;;;;;;;1.92;1.30;;;;;;;27.31;29.48;96334.44;4923582;28;20043;-30
2022/04/13 02:59:31;;;;;;;1.73;1.02;;;;;;;27.31;29.38;96329.16;4921617;28;20517;-30
2022/04/13 03:01:56;;;;;;;1.92;1.25;;;;;;;27.31;29.31;96334.44;4923449;28;20685;-32
2022/04/13 03:04:22;;;;;;;2.30;1.63;;;;;;;27.33;29.44;96336.97;4925104;28;20028;-31
2022/04/13 03:06:47;;;;;;;1.75;1.25;;;;;;;27.32;29.48;96328.25;4933299;28;20086;-30
2022/04/13 03:09:12;;;;;;;3.00;1.48;;;;;;;27.31;29.28;96329.16;4921677;28;20669;-29
2022/04/13 03:11:40;;;;;;;2.47;1.40;;;;;;;27.32;29.33;96338.78;4922313;28;20714;-31
2022/04/13 03:14:06;;;;;;;2.22;1.38;;;;;;;27.31;29.35;96331.81;4925383;28;20027;-32
2022/04/13 03:16:31;;;;;;;4.70;1.30;;;;;;;27.31;29.42;96342.31;4929480;28;20657;-31
2022/04/13 03:18:56;;;;;;;2.05;1.40;;;;;;;27.32;29.34;96330.03;4932256;28;20031;-30
2022/04/13 03:21:22;;;;;;;2.10;1.23;;;;;;;27.32;29.28;96328.25;4928509;28;20517;-30
2022/04/13 03:23:47;;;;;;;1.58;1.13;;;;;;;27.32;29.47;96325.63;4931351;28;20728;-31
2022/04/13 03:26:13;;;;;;;1.20;0.95;;;;;;;27.31;29.43;96334.44;4928797;28;20072;-32
2022/04/13 03:28:38;;;;;;;1.92;1.23;;;;;;;27.32;29.34;96325.63;4930869;28;20026;-30
2022/04/13 03:31:03;;;;;;;2.45;1.15;;;;;;;27.33;29.32;96331.69;4931462;28;20490;-29
2022/04/13 03:33:29;;;;;;;1.50;1.05;;;;;;;27.31;29.30;96329.16;4933987;28;20031;-30
2022/04/13 03:35:54;;;;;;;2.60;1.10;;;;;;;27.31;29.25;96331.81;4930913;28;20036;-29
2022/04/13 03:38:20;;;;;;;1.05;0.85;;;;;;;27.31;29.50;96333.59;4928649;28;20039;-30
2022/04/13 03:40:45;;;;;;;2.13;1.05;;;;;;;27.30;29.41;96335.38;4928921;28;20035;-29
2022/04/13 03:43:11;;;;;;;1.83;1.30;;;;;;;27.31;29.50;96338.88;4930143;28;20035;-30
2022/04/13 03:45:36;;;;;;;1.73;1.30;;;;;;;27.30;29.32;96332.75;4924162;28;20032;-30
2022/04/13 03:48:02;;;;;;;1.25;1.00;;;;;;;27.31;29.27;96339.69;4920944;28;20970;-31
2022/04/13 03:50:27;;;;;;;3.55;1.10;;;;;;;27.30;29.34;96345.91;4921671;28;20031;-29
2022/04/13 03:52:52;;;;;;;2.90;1.13;;;;;;;27.30;29.50;96348.53;4922681;28;21334;-28
2022/04/13 03:55:22;;;;;;;1.55;1.17;;;;;;;27.30;29.33;96345.09;4920364;28;20027;-37
2022/04/13 03:57:50;;;;;;;2.22;0.98;;;;;;;27.29;29.34;96341.59;4920700;28;20038;-30
2022/04/13 04:00:16;;;;;;;2.53;1.45;;;;;;;27.30;29.41;96342.44;4921514;28;20561;-31
2022/04/13 04:02:43;;;;;;;1.52;1.08;;;;;;;27.30;29.14;96337.19;4921642;28;20027;-29
2022/04/13 04:05:08;;;;;;;3.63;1.17;;;;;;;27.29;29.36;96341.59;4920016;28;20034;-30
2022/04/13 04:07:34;;;;;;;1.80;1.30;;;;;;;27.29;29.38;96344.22;4921825;28;20035;-36
2022/04/13 04:09:59;;;;;;;2.53;1.15;;;;;;;27.29;29.45;96346.84;4920916;28;20031;-30
2022/04/13 04:12:25;;;;;;;1.40;1.05;;;;;;;27.29;29.39;96346.84;4922138;28;20031;-35
2022/04/13 04:14:50;;;;;;;1.00;0.90;;;;;;;27.29;29.41;96351.25;4921190;28;20123;-30
2022/04/13 04:17:15;;;;;;;2.30;1.15;;;;;;;27.28;29.44;96350.44;4920787;28;20086;-34
2022/04/13 04:19:41;;;;;;;1.33;0.90;;;;;;;27.29;29.35;96352.13;4923363;28;21627;-32
2022/04/13 04:22:06;;;;;;;1.75;1.05;;;;;;;27.28;29.35;96350.44;4921190;28;20046;-30
2022/04/13 04:24:32;;;;;;;1.25;1.05;;;;;;;27.27;29.41;96344.31;4915807;28;20035;-30
2022/04/13 04:26:57;;;;;;;2.40;1.20;;;;;;;27.28;29.46;96353.06;4923528;28;20050;-30
2022/04/13 04:29:24;;;;;;;1.77;1.20;;;;;;;27.27;29.45;96348.75;4920424;28;20031;-35
2022/04/13 04:31:53;;;;;;;1.45;1.20;;;;;;;27.27;29.31;96354.84;4922986;28;20042;-31
2022/04/13 04:34:21;;;;;;;4.13;1.00;;;;;;;27.27;29.27;96354.03;4920118;28;20074;-30
2022/04/13 04:36:46;;;;;;;1.50;1.08;;;;;;;27.26;29.38;96360.22;4921002;28;20027;-28
2022/04/13 04:39:12;;;;;;;2.78;1.27;;;;;;;27.26;29.42;96357.56;4921872;28;20812;-31
2022/04/13 04:41:39;;;;;;;1.27;0.95;;;;;;;27.25;29.38;96362.00;4918912;28;20085;-32
2022/04/13 04:44:05;;;;;;;1.13;1.00;;;;;;;27.25;29.43;96359.38;4921785;28;20161;-35
2022/04/13 04:46:30;;;;;;;2.17;1.05;;;;;;;27.26;29.43;96360.22;4921925;28;20034;-31
2022/04/13 04:48:56;;;;;;;3.40;1.20;;;;;;;27.25;29.54;96361.16;4918768;28;20807;-32
2022/04/13 04:51:21;;;;;;;1.13;0.98;;;;;;;27.25;29.36;96361.16;4920948;28;20117;-33
2022/04/13 04:53:49;;;;;;;1.85;1.00;;;;;;;27.24;29.33;96365.56;4923809;28;20858;-36
2022/04/13 04:56:15;;;;;;;2.28;1.10;;;;;;;27.24;29.38;96360.31;4921867;28;20031;-32
2022/04/13 04:58:40;;;;;;;1.30;0.73;;;;;;;27.24;29.36;96354.22;4921662;28;20459;-31
2022/04/13 05:01:06;;;;;;;2.22;1.10;;;;;;;27.23;29.34;96357.81;4924889;28;20032;-30
2022/04/13 05:03:32;;;;;;;0.75;0.73;;;;;;;27.23;29.35;96365.69;4922618;28;20023;-31
2022/04/13 05:05:57;;;;;;;1.55;1.00;;;;;;;27.22;29.42;96366.63;4909757;28;20581;-32
2022/04/13 05:08:23;;;;;;;2.58;0.95;;;;;;;27.22;29.37;96371.88;4920769;28;20375;-34
2022/04/13 05:10:51;;;;;;;0.80;0.70;;;;;;;27.21;29.28;96370.19;4921608;28;20474;-33
2022/04/13 05:13:19;;;;;;;1.30;0.88;;;;;;;27.21;29.36;96372.81;4918895;28;20027;-32
2022/04/13 05:15:45;;;;;;;2.30;1.10;;;;;;;27.22;29.32;96379.75;4921097;28;20038;-33
2022/04/13 05:18:11;;;;;;;0.80;0.75;;;;;;;27.21;29.46;96378.09;4916327;28;20024;-32
2022/04/13 05:20:36;;;;;;;5.40;2.15;;;;;;;27.21;29.44;96380.72;4922546;28;20414;-34
2022/04/13 05:23:02;;;;;;;1.70;1.33;;;;;;;27.21;29.39;96383.34;4922878;28;20043;-32
2022/04/13 05:25:27;;;;;;;1.20;0.98;;;;;;;27.21;29.74;96378.94;4915097;28;20102;-29
2022/04/13 05:27:53;;;;;;;1.60;1.00;;;;;;;27.20;29.41;96385.16;4917608;28;20060;-32
2022/04/13 05:30:18;;;;;;;1.92;0.90;;;;;;;27.21;29.52;96385.97;4920546;28;20027;-36
2022/04/13 05:32:50;;;;;;;2.08;0.93;;;;;;;27.20;29.47;96390.41;4922288;28;20117;-30
2022/04/13 05:35:18;;;;;;;1.55;1.20;;;;;;;27.20;29.41;96397.44;4917268;28;20031;-31
2022/04/13 05:37:44;;;;;;;1.08;0.98;;;;;;;27.20;29.47;96394.81;4919204;28;20087;-31
2022/04/13 05:40:10;;;;;;;1.58;1.02;;;;;;;27.19;29.36;96396.59;4920969;28;20549;-30
2022/04/13 05:42:35;;;;;;;3.00;0.90;;;;;;;27.20;29.47;96400.09;4926623;28;20572;-29
2022/04/13 05:45:01;;;;;;;1.63;0.82;;;;;;;27.18;29.41;96401.94;4928771;28;20023;-27
2022/04/13 05:47:26;;;;;;;13.65;2.42;;;;;;;27.17;29.59;96405.53;4932103;28;20031;-30
2022/04/13 05:49:51;;;;;;;4.60;1.38;;;;;;;27.18;29.47;96417.72;4946719;28;20222;-30
2022/04/13 05:52:17;;;;;;;1.48;1.08;;;;;;;27.18;29.40;96412.47;4931329;28;20590;-31
2022/04/13 05:54:42;;;;;;;4.10;1.25;;;;;;;27.17;29.67;96410.78;4932525;28;20043;-31
2022/04/13 05:57:08;;;;;;;1.75;1.23;;;;;;;27.19;29.53;96416.81;4932394;28;20123;-32
2022/04/13 05:59:34;;;;;;;2.00;1.00;;;;;;;27.17;29.60;96413.41;4933216;28;20553;-31
2022/04/13 06:01:59;;;;;;;4.03;1.38;;;;;;;27.17;29.55;96416.06;4931495;28;21189;-29
2022/04/13 06:04:25;;;;;;;1.65;1.02;;;;;;;27.17;29.40;96418.69;4932912;28;20887;-30
2022/04/13 06:06:51;;;;;;;3.35;1.15;;;;;;;27.16;29.47;96420.50;4929918;28;20095;-31
2022/04/13 06:09:16;;;;;;;2.03;1.20;;;;;;;27.17;29.49;96416.91;4930014;28;20032;-30
2022/04/13 06:11:42;;;;;;;2.80;1.40;;;;;;;27.18;29.39;96407.22;4924395;28;20039;-31
2022/04/13 06:14:07;;;;;;;5.00;1.27;;;;;;;27.17;29.46;96416.91;4919710;28;20050;-30
2022/04/13 06:16:33;;;;;;;7.10;1.80;;;;;;;27.17;29.43;96416.91;4926434;28;20058;-31
2022/04/13 06:18:58;;;;;;;5.22;1.67;;;;;;;27.17;29.53;96414.28;4918316;28;20046;-33
2022/04/13 06:21:23;;;;;;;12.52;1.70;;;;;;;27.17;29.40;96414.28;4922636;28;20050;-33
2022/04/13 06:23:49;;;;;;;4.45;1.40;;;;;;;27.17;29.49;96424.81;4922950;28;20031;-34
2022/04/13 06:26:14;;;;;;;3.63;1.77;;;;;;;27.18;29.49;96423.00;4910954;28;20047;-31
2022/04/13 06:28:40;;;;;;;4.25;2.20;;;;;;;27.18;29.61;96428.25;4923364;28;20039;-33
2022/04/13 06:31:05;;;;;;;5.72;1.73;;;;;;;27.18;29.50;96428.25;4922748;28;20028;-31
2022/04/13 06:33:31;;;;;;;4.18;1.80;;;;;;;27.19;29.38;96429.97;4923203;28;20028;-30
2022/04/13 06:35:58;;;;;;;7.55;1.98;;;;;;;27.19;29.35;96435.22;4924337;28;20359;-31
2022/04/13 06:38:23;;;;;;;4.28;2.00;;;;;;;27.19;29.42;96440.50;4924599;28;20628;-30
2022/04/13 06:40:48;;;;;;;5.07;2.10;;;;;;;27.21;29.41;96438.59;4924887;28;20031;-30
2022/04/13 06:43:14;;;;;;;4.75;2.28;;;;;;;27.20;29.45;96434.28;4918010;28;20027;-33
2022/04/13 06:45:40;;;;;;;8.65;2.72;;;;;;;27.21;29.18;96438.59;4919056;28;20248;-32
2022/04/13 06:48:07;;;;;;;6.13;2.70;;;;;;;27.23;29.35;96439.34;4921330;28;20034;-31
2022/04/13 06:50:33;;;;;;;9.30;2.80;;;;;;;27.22;29.33;96437.63;4923856;28;20110;-32
2022/04/13 06:52:59;;;;;;;10.95;3.63;;;;;;;27.22;29.36;96448.16;4923050;28;20039;-29
2022/04/13 06:55:24;;;;;;;8.65;3.10;;;;;;;27.22;29.42;96446.38;4925404;28;20039;-31
2022/04/13 06:57:50;;;;;;;8.70;3.70;;;;;;;27.23;29.26;96447.25;4925820;28;20063;-32
2022/04/13 07:00:16;;;;;;;7.80;3.15;;;;;;;27.23;29.39;96437.53;4924747;28;20031;-32
2022/04/13 07:02:41;;;;;;;8.77;3.20;;;;;;;27.23;29.24;96453.31;4924002;28;20035;-30
2022/04/13 07:05:07;;;;;;;7.38;3.00;;;;;;;27.24;29.24;96448.91;4922692;28;20058;-32
2022/04/13 07:07:33;;;;;;;9.63;3.40;;;;;;;27.26;29.24;96447.03;4925277;28;20094;-30
2022/04/13 07:09:58;;;;;;;11.80;3.45;;;;;;;27.26;29.24;96452.28;4922789;28;20035;-29
2022/04/13 07:12:24;;;;;;;8.27;3.55;;;;;;;27.25;29.29;96451.47;4924993;28;20049;-33
2022/04/13 07:14:50;;;;;;;9.68;3.53;;;;;;;27.26;29.17;96447.88;4922849;28;20035;-31
2022/04/13 07:17:15;;;;;;;9.30;3.25;;;;;;;27.27;29.30;96443.47;4921752;28;20031;-29
2022/04/13 07:19:40;;;;;;;6.43;2.97;;;;;;;27.28;29.32;96450.41;4917241;28;20039;-30
2022/04/13 07:22:06;;;;;;;11.50;3.20;;;;;;;27.28;29.28;96450.41;4920125;28;20019;-30
2022/04/13 07:24:31;;;;;;;8.68;3.50;;;;;;;27.28;29.19;96450.41;4916848;28;20862;-30
2022/04/13 07:26:57;;;;;;;7.03;3.00;;;;;;;27.29;29.04;96449.47;4920779;28;20453;-32
2022/04/13 07:29:22;;;;;;;9.68;3.25;;;;;;;27.29;29.10;96441.56;4921779;28;20466;-35
2022/04/13 07:31:48;;;;;;;10.65;3.60;;;;;;;27.29;29.06;96452.09;4920438;28;20644;-32
2022/04/13 07:34:13;;;;;;;10.75;3.67;;;;;;;27.31;29.04;96455.44;4922919;28;20032;-32
2022/04/13 07:36:38;;;;;;;6.80;2.88;;;;;;;27.31;29.20;96460.72;4919544;28;20119;-31
2022/04/13 07:39:04;;;;;;;5.88;2.80;;;;;;;27.33;29.08;96464.09;4918167;28;20039;-30
2022/04/13 07:41:29;;;;;;;6.35;2.70;;;;;;;27.35;29.09;96461.38;4921623;28;20040;-35
2022/04/13 07:43:57;;;;;;;9.90;3.05;;;;;;;27.34;29.11;96455.25;4919993;28;20031;-33
2022/04/13 07:46:22;;;;;;;6.85;3.03;;;;;;;27.36;29.07;96457.81;4918084;28;20537;-32
2022/04/13 07:48:48;;;;;;;7.55;3.05;;;;;;;27.35;29.03;96451.69;4918332;28;20031;-33
2022/04/13 07:51:13;;;;;;;6.30;2.90;;;;;;;27.37;29.22;96457.72;4922378;28;20035;-32
2022/04/13 07:53:39;;;;;;;6.25;2.95;;;;;;;27.37;29.06;96460.34;4919759;28;20622;-35
2022/04/13 07:56:04;;;;;;;5.32;2.50;;;;;;;27.39;29.12;96453.16;4918160;28;20031;-31
2022/04/13 07:58:29;;;;;;;5.35;2.72;;;;;;;27.40;29.13;96459.28;4920685;28;20144;-36
2022/04/13 08:00:55;;;;;;;7.32;2.80;;;;;;;27.40;29.15;96456.66;4916753;28;20054;-37
2022/04/13 08:03:20;;;;;;;5.65;2.90;;;;;;;27.42;29.14;96461.81;4921800;28;20039;-31
2022/04/13 08:05:46;;;;;;;4.63;2.47;;;;;;;27.43;29.15;96458.25;4915133;28;20032;-31
2022/04/13 08:08:11;;;;;;;6.28;2.60;;;;;;;27.43;28.92;96458.25;4920596;28;20035;-35
2022/04/13 08:10:36;;;;;;;4.03;2.38;;;;;;;27.44;29.08;96459.91;4919040;28;20043;-30
2022/04/13 08:13:02;;;;;;;33.83;3.75;;;;;;;27.44;28.75;96471.31;4920719;28;21321;-30
2022/04/13 08:15:27;;;;;;;14.82;4.25;;;;;;;27.39;28.46;96463.69;4919784;28;20055;-31
2022/04/13 08:17:53;;;;;;;10.48;3.40;;;;;;;27.33;28.41;96464.09;4927290;28;20038;-32
2022/04/13 08:20:18;;;;;;;8.52;3.08;;;;;;;27.31;28.25;96475.69;4917860;28;20039;-31
2022/04/13 08:22:44;;;;;;;17.17;3.13;;;;;;;27.25;27.82;96471.66;4918497;28;20565;-34
2022/04/13 08:25:10;;;;;;;6.90;3.33;;;;;;;27.17;27.50;96469.50;4920672;28;20096;-31
2022/04/13 08:27:35;;;;;;;9.48;2.70;;;;;;;27.10;27.50;96469.06;4928377;28;20036;-35
2022/04/13 08:30:01;;;;;;;15.38;3.00;;;;;;;27.07;27.51;96471.88;4918206;28;20534;-30
2022/04/13 08:32:26;;;;;;;6.43;2.50;;;;;;;27.04;27.67;96474.69;4917869;28;20414;-31
2022/04/13 08:34:54;;;;;;;3.42;2.40;;;;;;;27.04;27.77;96474.69;4915419;28;20273;-32
2022/04/13 08:37:20;;;;;;;8.63;2.80;;;;;;;27.05;27.92;96479.03;4915848;28;20632;-30
2022/04/13 08:39:46;;;;;;;7.57;2.63;;;;;;;27.05;27.84;96478.19;4921140;28;20027;-30
2022/04/13 08:42:12;;;;;;;7.18;2.72;;;;;;;27.07;28.03;96489.44;4919638;28;20035;-35
2022/04/13 08:44:48;;;;;;;7.00;2.30;;;;;;;27.08;28.04;96491.16;4922315;28;23586;-31
2022/04/13 08:47:15;;;;;;;10.52;2.50;;;;;;;27.09;28.18;96488.41;4921764;28;20046;-31
2022/04/13 08:49:41;;;;;;;4.78;2.53;;;;;;;27.10;28.16;96490.09;4916166;28;20118;-31
2022/04/13 08:52:08;;;;;;;7.97;2.95;;;;;;;27.12;28.23;96493.47;4912844;28;20027;-36
2022/04/13 08:54:41;;;;;;;11.73;2.63;;;;;;;27.13;28.23;96489.06;4916538;28;20031;-35
2022/04/13 08:57:08;;;;;;;5.18;2.63;;;;;;;27.16;28.24;96488.03;4932488;28;20039;-33
2022/04/13 08:59:52;;;;;;;8.43;2.60;;;;;;;27.17;28.28;96482.66;4923712;28;20105;-31
2022/04/13 09:02:27;;;;;;;6.65;2.70;;;;;;;27.19;28.26;96482.56;4925440;28;20050;-34
2022/04/13 09:04:54;;;;;;;6.78;2.25;;;;;;;27.20;28.32;96484.25;4913209;28;20039;-31
2022/04/13 09:07:20;;;;;;;9.13;3.00;;;;;;;27.21;28.50;96481.53;4916828;28;20129;-33
2022/04/13 09:09:46;;;;;;;5.90;2.70;;;;;;;27.23;28.40;96473.53;4905877;28;20024;-34
2022/04/13 09:12:13;;;;;;;7.70;3.10;;;;;;;27.24;28.46;96477.84;4934859;28;20047;-35
2022/04/13 09:14:38;;;;;;;9.52;2.60;;;;;;;27.26;28.35;96478.59;4931504;28;21003;-33
2022/04/13 09:17:04;;;;;;;15.13;3.22;;;;;;;27.25;28.39;96482.16;4929855;28;20099;-32
2022/04/13 09:19:30;;;;;;;9.90;2.75;;;;;;;27.26;28.54;96483.84;4914276;28;20031;-33
2022/04/13 09:21:55;;;;;;;6.80;3.03;;;;;;;27.26;28.53;96484.72;4920186;28;21989;-33
2022/04/13 09:24:21;;;;;;;5.85;2.40;;;;;;;27.26;28.70;96487.34;4935236;28;20031;-35
2022/04/13 09:26:46;;;;;;;15.20;3.13;;;;;;;27.26;29.10;96483.84;4920711;28;20727;-32
2022/04/13 09:29:12;;;;;;;12.73;3.20;;;;;;;27.25;29.31;96482.16;4926874;28;20099;-33
2022/04/13 09:31:38;;;;;;;10.60;3.22;;;;;;;27.27;29.52;96475.03;4931156;28;20074;-32
2022/04/13 09:34:03;;;;;;;15.45;3.50;;;;;;;27.34;29.42;96486.00;4939141;28;20082;-36
2022/04/13 09:36:29;;;;;;;18.90;4.43;;;;;;;27.41;29.43;96486.47;4929591;28;20481;-34
2022/04/13 09:38:56;;;;;;;17.20;4.90;;;;;;;27.52;29.37;96482.19;4931221;28;20028;-32
2022/04/13 09:41:22;;;;;;;16.50;4.00;;;;;;;27.68;29.20;96477.72;4930502;28;20087;-33
2022/04/13 09:43:55;;;;;;;19.70;4.88;;;;;;;27.84;29.21;96485.47;4929225;28;20470;-33
2022/04/13 09:46:30;;;;;;;17.10;4.35;;;;;;;27.99;28.73;96475.69;4929306;28;20034;-36
2022/04/13 09:49:14;;;;;;;11.82;4.30;;;;;;;28.15;28.60;96478.94;4928422;28;20054;-36
2022/04/13 09:51:41;;;;;;;19.88;4.47;;;;;;;28.29;28.48;96466.66;4925333;28;20040;-32
2022/04/13 09:54:07;;;;;;;15.15;4.15;;;;;;;28.42;28.39;96467.50;4929990;28;20036;-34
2022/04/13 09:56:33;;;;;;;13.38;4.03;;;;;;;28.55;28.14;96467.50;4929799;28;20035;-36
2022/04/13 09:58:58;;;;;;;9.75;3.70;;;;;;;28.68;28.10;96461.38;4926630;28;20071;-32
2022/04/13 10:01:24;;;;;;;11.95;4.00;;;;;;;28.78;27.81;96461.53;4919806;28;20035;-33
2022/04/13 10:03:53;;;;;;;11.80;4.43;;;;;;;28.87;27.54;96452.97;4919875;28;20670;-37
2022/04/13 10:06:26;;;;;;;10.65;3.67;;;;;;;28.95;27.62;96458.59;4923530;28;20085;-33
2022/04/13 10:08:58;;;;;;;13.30;3.75;;;;;;;29.02;27.60;96458.97;4918172;28;20063;-33
2022/04/13 10:11:24;;;;;;;7.20;2.97;;;;;;;29.11;27.17;96462.78;4916132;28;20800;-36
2022/04/13 10:13:49;;;;;;;9.45;3.67;;;;;;;29.17;27.01;96459.69;4919537;28;20027;-32
2022/04/13 10:16:15;;;;;;;10.75;3.75;;;;;;;29.22;26.96;96459.34;4917259;28;20060;-32
2022/04/13 10:18:53;;;;;;;10.93;3.40;;;;;;;29.26;27.01;96460.81;4923728;28;20031;-32
2022/04/13 10:21:54;;;;;;;12.30;3.50;;;;;;;29.29;26.92;96462.38;4923665;28;20043;-31
2022/04/13 10:24:32;;;;;;;10.80;3.58;;;;;;;29.30;26.94;96456.16;4917983;28;20063;-34
2022/04/13 10:27:06;;;;;;;12.77;3.38;;;;;;;29.30;27.21;96461.44;4923670;28;20410;-33
2022/04/13 10:29:35;;;;;;;8.80;3.22;;;;;;;29.27;27.26;96456.38;4923574;28;20038;-35
2022/04/13 10:32:08;;;;;;;11.63;3.38;;;;;;;29.23;27.09;96461.03;4919359;28;20035;-34
2022/04/13 10:34:38;;;;;;;9.43;3.30;;;;;;;29.18;27.07;96458.72;4924567;28;20044;-32
2022/04/13 10:37:07;;;;;;;12.45;3.30;;;;;;;29.14;27.35;96451.16;4925047;28;20034;-36
2022/04/13 10:39:33;;;;;;;9.00;3.00;;;;;;;29.10;27.34;96461.06;4925707;28;20031;-35
2022/04/13 10:41:58;;;;;;;9.90;2.85;;;;;;;29.03;27.46;96449.28;4925285;28;20078;-38
2022/04/13 10:44:36;;;;;;;7.47;3.00;;;;;;;28.97;27.60;96453.19;4925856;28;20032;-34
2022/04/13 10:47:06;;;;;;;7.93;3.20;;;;;;;28.93;27.53;96449.09;4928407;28;20027;-35
2022/04/13 10:49:41;;;;;;;6.05;2.88;;;;;;;28.87;27.50;96444.25;4926134;28;20039;-32
2022/04/13 10:52:08;;;;;;;8.77;2.85;;;;;;;28.82;27.60;96441.91;4936206;28;20026;-35
2022/04/13 10:54:36;;;;;;;6.97;2.90;;;;;;;28.75;27.74;96445.97;4925543;28;21066;-31
2022/04/13 10:57:03;;;;;;;13.65;3.10;;;;;;;28.73;27.69;96447.84;4926127;28;20031;-34
2022/04/13 10:59:32;;;;;;;7.75;3.05;;;;;;;28.67;27.83;96447.34;4931365;28;20074;-33
2022/04/13 11:02:06;;;;;;;8.55;3.30;;;;;;;28.62;27.84;96441.56;4941966;28;20588;-38
2022/04/13 11:04:32;;;;;;;8.00;2.80;;;;;;;28.59;27.99;96449.66;4927252;28;20505;-38
2022/04/13 11:06:57;;;;;;;8.00;3.30;;;;;;;28.54;28.34;96449.16;4925689;28;20031;-38
2022/04/13 11:09:26;;;;;;;8.02;2.60;;;;;;;28.51;28.15;96463.38;4940796;28;20501;-35
2022/04/13 11:11:55;;;;;;;7.85;2.72;;;;;;;28.47;28.08;96450.53;4911006;28;20032;-31
2022/04/13 11:14:21;;;;;;;8.05;2.92;;;;;;;28.45;28.50;96455.06;4941035;28;20062;-40
2022/04/13 11:16:47;;;;;;;6.57;2.55;;;;;;;28.41;28.76;96452.63;4927455;28;20027;-38
2022/04/13 11:19:12;;;;;;;6.68;2.53;;;;;;;28.38;28.78;96449.38;4932544;28;21284;-32
2022/04/13 11:21:52;;;;;;;6.55;2.78;;;;;;;28.37;28.92;96451.16;4922785;28;20031;-35
2022/04/13 11:24:34;;;;;;;6.03;2.50;;;;;;;28.41;28.79;96450.00;4930010;28;20031;-36
2022/04/13 11:26:59;;;;;;;8.32;2.83;;;;;;;28.47;28.77;96447.88;4930682;28;20058;-32
2022/04/13 11:29:32;;;;;;;5.57;2.42;;;;;;;28.54;28.58;96451.78;4930977;28;20543;-31